Time;durP1;ratioP1;P1;durP2;ratioP2;P2;SDS_P1;SDS_P2;PMS_P1;PMS_P2;Temp;Humidity;BMP_temperature;BMP_pressure;BME280_temperature;BME280_humidity;BME280_pressure;Samples;Min_cycle;Max_cycle;Signal;HPM_P1;HPM_P2
2022/07/19 00:00:25;;;;;;;9.50;2.88;;;14.50;99.90;;;;;;5054345;28;20032;-50
2022/07/19 00:02:52;;;;;;;10.18;3.67;;;14.60;99.90;;;;;;5054033;28;20040;-50
2022/07/19 00:05:19;;;;;;;8.75;3.15;;;14.50;99.90;;;;;;5054122;28;20021;-50
2022/07/19 00:07:46;;;;;;;8.63;3.15;;;14.40;99.90;;;;;;5054137;28;20029;-50
2022/07/19 00:10:14;;;;;;;7.80;3.13;;;14.30;99.90;;;;;;5054257;28;20057;-50
2022/07/19 00:12:40;;;;;;;6.95;3.60;;;14.30;99.90;;;;;;5053703;28;20037;-50
2022/07/19 00:15:09;;;;;;;9.68;3.10;;;14.20;99.90;;;;;;5054253;28;20368;-50
2022/07/19 00:17:38;;;;;;;6.05;3.35;;;14.20;99.90;;;;;;5054097;28;20021;-50
2022/07/19 00:20:05;;;;;;;7.25;3.13;;;14.20;99.90;;;;;;5053971;28;20036;-50
2022/07/19 00:22:31;;;;;;;6.20;3.03;;;14.10;99.90;;;;;;5054209;28;20118;-50
2022/07/19 00:24:56;;;;;;;6.50;3.10;;;14.10;99.90;;;;;;5054424;28;20033;-50
2022/07/19 00:27:22;;;;;;;6.57;3.22;;;14.10;99.90;;;;;;5053920;28;20034;-50
2022/07/19 00:29:48;;;;;;;7.18;2.95;;;14.00;99.90;;;;;;5053954;28;20041;-50
2022/07/19 00:32:14;;;;;;;4.68;2.88;;;14.00;99.90;;;;;;5054137;28;20099;-50
2022/07/19 00:34:40;;;;;;;4.22;2.90;;;14.00;99.90;;;;;;5055982;28;20025;-50
2022/07/19 00:37:06;;;;;;;5.18;2.80;;;14.00;99.90;;;;;;5057861;28;20041;-50
2022/07/19 00:39:32;;;;;;;10.02;3.20;;;13.90;99.90;;;;;;5057817;28;20085;-50
2022/07/19 00:41:58;;;;;;;5.22;3.00;;;13.90;99.90;;;;;;5057403;28;20041;-50
2022/07/19 00:44:23;;;;;;;6.40;2.92;;;13.80;99.90;;;;;;5057645;28;20025;-50
2022/07/19 00:46:50;;;;;;;9.50;3.45;;;13.70;99.90;;;;;;5057646;28;20385;-50
2022/07/19 00:49:15;;;;;;;5.57;3.20;;;13.70;99.90;;;;;;5057600;28;20402;-50
2022/07/19 00:51:43;;;;;;;4.65;2.50;;;13.90;99.90;;;;;;5039680;28;20041;-50
2022/07/19 00:54:12;;;;;;;8.18;2.90;;;14.00;99.90;;;;;;5057371;28;20056;-50
2022/07/19 00:56:40;;;;;;;6.38;3.00;;;14.00;99.90;;;;;;5057393;28;20029;-50
2022/07/19 00:59:08;;;;;;;12.98;3.80;;;13.90;99.90;;;;;;5057423;28;20025;-50
2022/07/19 01:01:34;;;;;;;8.15;3.35;;;13.80;99.90;;;;;;5057339;28;20078;-50
2022/07/19 01:03:59;;;;;;;7.20;3.75;;;13.80;99.90;;;;;;5057246;28;20459;-50
2022/07/19 01:06:26;;;;;;;10.63;3.00;;;13.70;99.90;;;;;;5057191;28;20443;-50
2022/07/19 01:08:52;;;;;;;3.78;2.88;;;13.70;99.90;;;;;;5057066;28;20025;-50
2022/07/19 01:11:18;;;;;;;7.32;3.13;;;13.70;99.90;;;;;;5056972;28;20049;-50
2022/07/19 01:13:44;;;;;;;8.55;3.92;;;13.60;99.90;;;;;;5057047;28;20407;-50
2022/07/19 01:16:10;;;;;;;8.93;3.80;;;13.60;99.90;;;;;;5057009;28;20041;-50
2022/07/19 01:18:35;;;;;;;5.43;2.95;;;13.50;99.90;;;;;;5056926;28;20033;-50
2022/07/19 01:21:04;;;;;;;7.05;3.58;;;13.40;99.90;;;;;;5056894;28;20032;-50
2022/07/19 01:23:30;;;;;;;5.80;3.03;;;13.20;99.90;;;;;;5056802;28;20029;-50
2022/07/19 01:25:56;;;;;;;5.72;2.97;;;13.20;99.90;;;;;;5056967;28;20033;-50
2022/07/19 01:28:22;;;;;;;6.38;3.42;;;13.30;99.90;;;;;;5056789;28;20029;-50
2022/07/19 01:30:47;;;;;;;6.70;3.38;;;13.20;99.90;;;;;;5056774;28;20017;-50
2022/07/19 01:33:13;;;;;;;4.93;2.97;;;13.20;99.90;;;;;;5056759;28;20470;-50
2022/07/19 01:35:39;;;;;;;4.45;2.78;;;13.20;99.90;;;;;;5056694;28;20021;-50
2022/07/19 01:38:05;;;;;;;6.00;3.00;;;13.20;99.90;;;;;;5056528;28;20495;-50
2022/07/19 01:40:33;;;;;;;9.20;3.25;;;13.10;99.90;;;;;;5056870;28;20036;-50
2022/07/19 01:42:59;;;;;;;5.85;3.20;;;13.20;99.90;;;;;;5056691;28;20037;-50
2022/07/19 01:45:25;;;;;;;8.55;3.33;;;13.20;99.90;;;;;;5056343;28;20108;-50
2022/07/19 01:47:50;;;;;;;8.98;3.60;;;13.20;99.90;;;;;;5056531;28;20061;-50
2022/07/19 01:50:17;;;;;;;8.98;3.60;;;13.20;99.90;;;;;;5056415;28;20064;-50
2022/07/19 01:52:45;;;;;;;5.25;3.40;;;13.10;99.90;;;;;;5056249;28;20066;-50
2022/07/19 01:55:11;;;;;;;6.35;3.45;;;13.20;99.90;;;;;;5056475;28;20433;-50
2022/07/19 01:57:37;;;;;;;6.57;3.60;;;13.20;99.90;;;;;;5056574;28;20079;-50
2022/07/19 02:00:05;;;;;;;9.35;3.42;;;13.10;99.90;;;;;;5056248;28;20032;-50
2022/07/19 02:02:38;;;;;;;7.75;3.45;;;13.10;99.90;;;;;;5056153;28;20111;-50
2022/07/19 02:05:05;;;;;;;13.98;4.25;;;13.10;99.90;;;;;;5056105;28;20459;-50
2022/07/19 02:07:31;;;;;;;6.95;3.75;;;13.00;99.90;;;;;;5056124;28;20502;-50
2022/07/19 02:09:57;;;;;;;7.28;3.30;;;13.10;99.90;;;;;;5056047;28;20502;-50
2022/07/19 02:12:24;;;;;;;6.57;3.88;;;13.00;99.90;;;;;;5055951;28;20053;-50
2022/07/19 02:14:50;;;;;;;11.50;4.13;;;13.00;99.90;;;;;;5056033;28;20029;-50
2022/07/19 02:17:16;;;;;;;7.07;3.22;;;13.00;99.90;;;;;;5055893;28;20050;-50
2022/07/19 02:19:42;;;;;;;7.50;3.70;;;13.10;99.90;;;;;;5055703;28;20535;-50
2022/07/19 02:22:07;;;;;;;5.40;3.45;;;13.00;99.90;;;;;;5055701;28;20123;-50
2022/07/19 02:24:33;;;;;;;4.18;3.05;;;13.00;99.90;;;;;;5055828;28;20021;-50
2022/07/19 02:26:59;;;;;;;8.20;3.22;;;13.00;99.90;;;;;;5055739;28;20382;-50
2022/07/19 02:29:25;;;;;;;5.32;2.92;;;13.10;99.90;;;;;;5055562;28;20028;-50
2022/07/19 02:31:51;;;;;;;7.15;3.22;;;13.10;99.90;;;;;;5055651;28;20025;-50
2022/07/19 02:34:17;;;;;;;9.52;4.15;;;13.00;99.90;;;;;;5055401;28;20037;-50
2022/07/19 02:36:43;;;;;;;7.18;3.13;;;12.90;99.90;;;;;;5055558;28;20029;-50
2022/07/19 02:39:09;;;;;;;6.88;3.40;;;12.90;99.90;;;;;;5055440;28;20064;-50
2022/07/19 02:41:35;;;;;;;9.63;3.40;;;12.80;99.90;;;;;;5055370;28;20115;-50
2022/07/19 02:44:01;;;;;;;7.88;3.47;;;12.70;99.90;;;;;;5055375;28;20029;-50
2022/07/19 02:46:27;;;;;;;7.45;3.55;;;12.60;99.90;;;;;;5054002;28;20485;-50
2022/07/19 02:48:53;;;;;;;8.88;3.20;;;12.60;99.90;;;;;;5037445;28;20029;-50
2022/07/19 02:51:19;;;;;;;7.97;3.92;;;12.60;99.90;;;;;;5055585;28;20028;-50
2022/07/19 02:53:45;;;;;;;7.55;3.45;;;12.50;99.90;;;;;;5055084;28;20028;-50
2022/07/19 02:56:10;;;;;;;10.45;4.45;;;12.50;99.90;;;;;;5054757;28;20025;-50
2022/07/19 02:58:36;;;;;;;9.75;4.15;;;12.40;99.90;;;;;;5054851;28;20036;-50
2022/07/19 03:01:02;;;;;;;6.40;3.40;;;12.30;99.90;;;;;;5055105;28;20032;-50
2022/07/19 03:03:43;;;;;;;6.15;3.80;;;12.40;99.90;;;;;;5054936;28;20426;-50
2022/07/19 03:06:10;;;;;;;8.95;4.10;;;12.30;99.90;;;;;;5054958;28;20021;-50
2022/07/19 03:08:36;;;;;;;6.50;3.55;;;12.30;99.90;;;;;;5055001;28;20032;-50
2022/07/19 03:11:02;;;;;;;6.97;3.20;;;12.30;99.90;;;;;;5054678;28;20045;-50
2022/07/19 03:13:28;;;;;;;6.28;3.47;;;12.20;99.90;;;;;;5054873;28;20044;-50
2022/07/19 03:15:54;;;;;;;10.02;3.45;;;12.30;99.90;;;;;;5054850;28;20032;-50
2022/07/19 03:18:20;;;;;;;4.82;3.47;;;12.20;99.90;;;;;;5054888;28;20029;-50
2022/07/19 03:20:46;;;;;;;7.20;3.88;;;12.20;99.90;;;;;;5054630;28;20048;-50
2022/07/19 03:23:12;;;;;;;6.15;3.35;;;12.20;99.90;;;;;;5054681;28;20021;-50
2022/07/19 03:25:38;;;;;;;5.13;3.58;;;12.20;99.90;;;;;;5054583;28;20021;-50
2022/07/19 03:28:04;;;;;;;7.00;3.35;;;12.20;99.90;;;;;;5054721;28;20024;-50
2022/07/19 03:30:31;;;;;;;4.60;3.05;;;12.20;99.90;;;;;;5054560;28;20040;-50
2022/07/19 03:32:58;;;;;;;7.75;3.88;;;12.20;99.90;;;;;;5037202;28;20103;-50
2022/07/19 03:35:24;;;;;;;13.68;4.00;;;12.30;99.90;;;;;;5054674;28;20635;-50
2022/07/19 03:37:51;;;;;;;10.32;3.05;;;12.40;99.90;;;;;;5054475;28;20021;-50
2022/07/19 03:40:17;;;;;;;9.85;4.05;;;12.40;99.90;;;;;;5054476;28;20033;-50
2022/07/19 03:42:42;;;;;;;11.40;3.88;;;12.30;99.90;;;;;;5054379;28;20037;-50
2022/07/19 03:45:09;;;;;;;14.30;4.25;;;12.30;99.90;;;;;;5054415;28;20017;-50
2022/07/19 03:47:35;;;;;;;6.40;3.25;;;12.30;99.90;;;;;;5054485;28;20364;-50
2022/07/19 03:50:01;;;;;;;9.27;3.58;;;12.30;99.90;;;;;;5054424;28;20048;-50
2022/07/19 03:52:27;;;;;;;6.57;3.08;;;12.30;99.90;;;;;;5054296;28;20037;-50
2022/07/19 03:54:53;;;;;;;10.23;4.18;;;12.40;99.90;;;;;;5054192;28;20029;-50
2022/07/19 03:57:19;;;;;;;11.18;4.10;;;12.50;99.90;;;;;;5054107;28;20079;-50
2022/07/19 03:59:45;;;;;;;6.93;3.83;;;12.50;99.90;;;;;;5054189;28;20036;-50
2022/07/19 04:02:11;;;;;;;21.38;5.65;;;12.60;99.90;;;;;;5054179;28;20052;-50
2022/07/19 04:04:37;;;;;;;18.75;4.78;;;12.60;99.90;;;;;;5054195;28;20021;-50
2022/07/19 04:07:03;;;;;;;11.65;4.40;;;12.60;99.90;;;;;;5054160;28;20021;-50
2022/07/19 04:09:29;;;;;;;8.48;3.38;;;12.60;99.90;;;;;;5056041;28;20025;-50
2022/07/19 04:11:55;;;;;;;7.43;3.40;;;12.60;99.90;;;;;;5058203;28;20410;-50
2022/07/19 04:14:21;;;;;;;7.53;3.35;;;12.70;99.90;;;;;;5058383;28;20094;-50
2022/07/19 04:16:47;;;;;;;4.18;3.15;;;12.70;99.90;;;;;;5058173;28;20037;-50
2022/07/19 04:19:13;;;;;;;7.72;3.90;;;12.70;99.90;;;;;;5058260;28;20082;-50
2022/07/19 04:21:38;;;;;;;9.48;3.63;;;12.90;99.90;;;;;;5057950;28;20036;-50
2022/07/19 04:24:04;;;;;;;14.20;4.65;;;12.90;99.90;;;;;;5058084;28;20060;-50
2022/07/19 04:26:30;;;;;;;10.68;3.85;;;13.00;99.90;;;;;;5057966;28;20029;-50
2022/07/19 04:28:56;;;;;;;8.63;4.00;;;13.00;99.90;;;;;;5039860;28;20486;-50
2022/07/19 04:31:22;;;;;;;6.78;4.05;;;13.10;99.90;;;;;;5057929;28;20534;-50
2022/07/19 04:33:48;;;;;;;6.97;3.90;;;13.20;99.90;;;;;;5057919;28;20409;-50
2022/07/19 04:36:14;;;;;;;7.95;3.92;;;13.20;99.90;;;;;;5057840;28;20478;-50
2022/07/19 04:38:40;;;;;;;9.55;3.58;;;13.40;99.90;;;;;;5057568;28;20608;-50
2022/07/19 04:41:06;;;;;;;18.35;5.55;;;13.60;99.90;;;;;;5057713;28;20358;-50
2022/07/19 04:43:32;;;;;;;10.05;4.22;;;13.70;99.90;;;;;;5057462;28;20048;-50
2022/07/19 04:45:59;;;;;;;11.18;3.70;;;13.80;99.90;;;;;;5057636;28;20179;-50
2022/07/19 04:48:26;;;;;;;15.90;3.97;;;13.90;99.90;;;;;;5057589;28;20036;-50
2022/07/19 04:50:52;;;;;;;8.93;3.67;;;14.10;99.90;;;;;;5057580;28;20100;-50
2022/07/19 04:53:18;;;;;;;10.15;4.43;;;14.20;99.90;;;;;;5057442;28;20092;-50
2022/07/19 04:55:44;;;;;;;10.13;3.75;;;14.30;99.90;;;;;;5057483;28;20032;-50
2022/07/19 04:58:10;;;;;;;9.57;3.60;;;14.40;99.90;;;;;;5039722;28;20470;-50
2022/07/19 05:00:36;;;;;;;13.80;4.55;;;14.50;99.90;;;;;;5057296;28;20025;-50
2022/07/19 05:03:02;;;;;;;15.40;4.05;;;14.60;99.90;;;;;;5057447;28;20037;-50
2022/07/19 05:05:28;;;;;;;13.57;4.15;;;14.80;99.90;;;;;;5057048;28;20390;-50
2022/07/19 05:07:54;;;;;;;10.05;4.00;;;14.90;99.90;;;;;;5057237;28;20035;-50
2022/07/19 05:10:20;;;;;;;7.88;4.20;;;15.10;99.90;;;;;;5057178;28;20017;-50
2022/07/19 05:12:46;;;;;;;17.58;4.45;;;15.20;99.90;;;;;;5056431;28;20044;-50
2022/07/19 05:15:12;;;;;;;14.38;5.03;;;15.30;99.90;;;;;;5057066;28;20064;-50
2022/07/19 05:17:38;;;;;;;13.32;4.32;;;15.30;99.90;;;;;;5056883;28;20021;-50
2022/07/19 05:20:06;;;;;;;14.00;5.72;;;15.40;99.90;;;;;;5055943;28;20056;-50
2022/07/19 05:22:32;;;;;;;17.02;5.60;;;15.50;99.90;;;;;;5056614;28;20033;-50
2022/07/19 05:24:59;;;;;;;23.80;8.00;;;15.80;99.90;;;;;;5056805;28;20028;-50
2022/07/19 05:27:25;;;;;;;15.27;5.85;;;15.90;99.10;;;;;;5055030;28;20027;-50
2022/07/19 05:29:51;;;;;;;84.68;12.18;;;16.00;98.70;;;;;;5055910;28;20029;-50
2022/07/19 05:32:17;;;;;;;19.20;7.00;;;16.20;97.20;;;;;;5056593;28;20033;-51
2022/07/19 05:34:44;;;;;;;20.02;7.00;;;16.30;97.50;;;;;;5056457;28;20037;-50
2022/07/19 05:37:10;;;;;;;19.40;7.13;;;16.40;96.80;;;;;;5056554;28;20021;-50
2022/07/19 05:39:36;;;;;;;18.48;5.45;;;16.50;96.40;;;;;;5056460;28;20051;-50
2022/07/19 05:42:02;;;;;;;29.58;6.57;;;16.70;94.70;;;;;;5056193;28;20028;-51
2022/07/19 05:44:28;;;;;;;16.95;5.15;;;16.80;93.50;;;;;;5056227;28;20104;-51
2022/07/19 05:46:54;;;;;;;12.40;5.32;;;16.90;93.00;;;;;;5053804;28;20064;-51
2022/07/19 05:49:20;;;;;;;23.67;6.30;;;17.10;92.30;;;;;;5052542;28;20485;-51
2022/07/19 05:51:45;;;;;;;12.93;4.72;;;17.20;91.90;;;;;;5056147;28;20029;-51
2022/07/19 05:54:11;;;;;;;18.42;5.97;;;17.30;90.50;;;;;;5056234;28;20115;-50
2022/07/19 05:56:37;;;;;;;10.80;4.28;;;17.40;89.60;;;;;;5056074;28;20052;-51
2022/07/19 05:59:03;;;;;;;19.20;11.25;;;17.50;88.00;;;;;;5052087;28;20064;-51
2022/07/19 06:01:30;;;;;;;23.50;6.53;;;17.70;87.70;;;;;;5035929;28;20032;-51
2022/07/19 06:03:59;;;;;;;22.15;6.57;;;17.70;87.20;;;;;;5035976;28;20033;-50
2022/07/19 06:06:30;;;;;;;16.95;5.82;;;17.90;87.80;;;;;;5044016;28;20025;-50
2022/07/19 06:08:57;;;;;;;21.38;5.25;;;18.00;86.10;;;;;;5053498;28;20036;-51
2022/07/19 06:11:24;;;;;;;13.10;4.32;;;18.20;85.80;;;;;;5055112;28;20052;-51
2022/07/19 06:13:52;;;;;;;16.45;5.00;;;18.30;82.70;;;;;;5041494;28;20041;-51
2022/07/19 06:16:19;;;;;;;16.55;4.97;;;18.40;82.80;;;;;;5052215;28;20029;-51
2022/07/19 06:18:45;;;;;;;18.92;5.05;;;18.50;81.80;;;;;;5055623;28;20025;-51
2022/07/19 06:21:13;;;;;;;14.50;4.70;;;18.60;79.60;;;;;;5055164;28;20480;-51
2022/07/19 06:23:41;;;;;;;37.80;7.32;;;18.70;79.60;;;;;;5055583;28;20104;-51
2022/07/19 06:26:08;;;;;;;17.40;4.38;;;18.90;78.80;;;;;;5050663;28;20360;-51
2022/07/19 06:28:34;;;;;;;14.65;4.13;;;19.00;75.30;;;;;;5048247;28;20108;-51
2022/07/19 06:31:00;;;;;;;15.10;5.35;;;19.10;75.40;;;;;;5043642;28;20112;-51
2022/07/19 06:33:26;;;;;;;9.25;3.88;;;19.30;74.50;;;;;;5035147;28;20025;-51
2022/07/19 06:35:52;;;;;;;13.93;4.80;;;19.50;74.00;;;;;;5035493;28;20027;-51
2022/07/19 06:38:18;;;;;;;18.63;5.60;;;19.70;72.90;;;;;;5046743;28;20422;-51
2022/07/19 06:40:44;;;;;;;18.85;4.65;;;19.90;73.90;;;;;;5045398;28;20067;-51
2022/07/19 06:43:10;;;;;;;26.63;4.53;;;20.10;72.30;;;;;;5035006;28;20421;-51
2022/07/19 06:45:37;;;;;;;16.17;5.32;;;20.30;69.40;;;;;;5039653;28;20025;-51
2022/07/19 06:48:03;;;;;;;15.40;4.43;;;20.40;68.50;;;;;;5054110;28;20025;-51
2022/07/19 06:50:29;;;;;;;21.30;5.45;;;20.60;67.00;;;;;;5051298;28;20017;-51
2022/07/19 06:52:55;;;;;;;11.70;3.70;;;20.80;66.10;;;;;;5043791;28;20029;-51
2022/07/19 06:55:24;;;;;;;16.83;4.60;;;21.00;65.00;;;;;;5035473;28;20057;-51
2022/07/19 06:57:50;;;;;;;11.00;3.90;;;21.20;63.50;;;;;;5043037;28;20041;-51
2022/07/19 07:00:16;;;;;;;24.75;5.32;;;21.40;60.70;;;;;;5045177;28;20103;-51
2022/07/19 07:02:42;;;;;;;21.38;4.95;;;21.50;60.00;;;;;;5050734;28;20029;-51
2022/07/19 07:05:10;;;;;;;14.60;4.95;;;21.80;60.20;;;;;;5055505;28;20021;-51
2022/07/19 07:07:37;;;;;;;16.00;5.38;;;22.00;59.40;;;;;;5055312;28;20021;-51
2022/07/19 07:10:06;;;;;;;16.17;4.63;;;22.20;59.60;;;;;;5055531;28;20510;-51
2022/07/19 07:12:33;;;;;;;25.17;6.55;;;22.50;57.00;;;;;;5055039;28;20075;-51
2022/07/19 07:14:58;;;;;;;14.10;5.28;;;22.80;56.80;;;;;;5055630;28;20112;-51
2022/07/19 07:17:24;;;;;;;22.30;6.13;;;23.10;55.40;;;;;;5054423;28;20121;-51
2022/07/19 07:19:50;;;;;;;18.20;7.05;;;23.50;55.20;;;;;;5051927;28;20030;-51
2022/07/19 07:22:16;;;;;;;31.38;8.75;;;23.80;54.50;;;;;;5054641;28;20036;-51
2022/07/19 07:24:42;;;;;;;25.13;7.43;;;24.00;52.80;;;;;;5054454;28;20025;-51
2022/07/19 07:27:08;;;;;;;41.72;8.88;;;24.30;52.00;;;;;;5054394;28;20032;-51
2022/07/19 07:29:34;;;;;;;21.23;7.13;;;24.60;53.30;;;;;;5054376;28;20021;-51
2022/07/19 07:32:00;;;;;;;30.30;7.57;;;25.00;51.20;;;;;;5054010;28;20039;-51
2022/07/19 07:34:26;;;;;;;33.83;7.30;;;25.40;49.60;;;;;;5054268;28;20056;-52
2022/07/19 07:36:52;;;;;;;32.08;7.18;;;25.60;50.00;;;;;;5054384;28;20028;-52
2022/07/19 07:39:18;;;;;;;26.65;6.68;;;25.80;50.50;;;;;;5054563;28;20036;-51
2022/07/19 07:41:43;;;;;;;17.58;5.70;;;26.10;47.60;;;;;;5053960;28;20120;-51
2022/07/19 07:44:09;;;;;;;22.35;5.97;;;26.50;45.60;;;;;;5052577;28;20103;-52
2022/07/19 07:46:35;;;;;;;25.67;7.60;;;26.70;46.10;;;;;;5054096;28;20033;-51
2022/07/19 07:49:02;;;;;;;24.70;8.05;;;27.00;46.90;;;;;;5054051;28;20052;-51
2022/07/19 07:51:28;;;;;;;28.00;7.97;;;27.20;46.80;;;;;;5054286;28;20036;-52
2022/07/19 07:53:55;;;;;;;22.55;8.05;;;27.40;46.30;;;;;;5054439;28;20048;-51
2022/07/19 07:56:21;;;;;;;22.85;7.35;;;27.70;45.60;;;;;;5054131;28;20433;-52
2022/07/19 07:58:47;;;;;;;22.70;7.78;;;27.70;43.60;;;;;;5054179;28;20061;-52
2022/07/19 08:01:12;;;;;;;39.38;9.15;;;27.80;44.70;;;;;;5047782;28;20113;-52
2022/07/19 08:03:39;;;;;;;32.05;8.25;;;28.00;43.10;;;;;;5053503;28;20081;-52
2022/07/19 08:06:05;;;;;;;19.42;7.70;;;28.40;43.20;;;;;;5053995;28;20036;-52
2022/07/19 08:08:31;;;;;;;23.88;7.93;;;28.50;41.50;;;;;;5035673;28;20064;-52
2022/07/19 08:10:57;;;;;;;31.15;9.95;;;28.70;40.90;;;;;;5049104;28;20683;-52
2022/07/19 08:13:23;;;;;;;27.02;8.07;;;29.00;40.40;;;;;;5034180;28;20029;-52
2022/07/19 08:15:50;;;;;;;28.67;8.43;;;29.10;38.50;;;;;;5034183;28;20400;-52
2022/07/19 08:18:17;;;;;;;27.10;6.72;;;29.10;37.90;;;;;;5033665;28;20029;-52
2022/07/19 08:20:43;;;;;;;24.20;8.25;;;29.30;39.70;;;;;;5033829;28;20530;-52
2022/07/19 08:23:09;;;;;;;27.15;7.47;;;28.80;37.10;;;;;;5036183;28;20108;-52
2022/07/19 08:25:35;;;;;;;20.58;6.63;;;29.10;38.30;;;;;;5043534;28;20108;-52
2022/07/19 08:28:03;;;;;;;14.18;4.28;;;29.80;36.70;;;;;;5043145;28;20090;-52
2022/07/19 08:30:29;;;;;;;10.75;4.13;;;30.00;35.80;;;;;;5054337;28;20086;-52
2022/07/19 08:32:55;;;;;;;13.23;4.55;;;30.40;36.30;;;;;;5054330;28;20078;-52
2022/07/19 08:35:21;;;;;;;19.83;4.47;;;30.70;34.60;;;;;;5054528;28;20032;-52
2022/07/19 08:37:48;;;;;;;12.05;4.38;;;30.60;32.50;;;;;;5054019;28;20465;-52
2022/07/19 08:40:14;;;;;;;15.57;4.38;;;31.00;32.20;;;;;;5054269;28;20063;-52
2022/07/19 08:42:40;;;;;;;11.98;3.70;;;31.20;31.10;;;;;;5054271;28;20032;-52
2022/07/19 08:45:08;;;;;;;11.23;3.78;;;31.50;31.50;;;;;;5047237;28;20021;-52
2022/07/19 08:47:35;;;;;;;10.50;3.88;;;31.50;30.80;;;;;;5018752;28;20116;-52
2022/07/19 08:50:05;;;;;;;8.55;3.45;;;31.70;32.20;;;;;;5047160;28;20025;-52
2022/07/19 08:52:35;;;;;;;23.58;4.20;;;31.90;30.50;;;;;;5040742;28;20120;-52
2022/07/19 08:55:02;;;;;;;7.78;2.95;;;31.40;29.80;;;;;;5035155;28;20542;-52
2022/07/19 09:00:13;;;;;;;11.57;4.10;;;32.10;30.10;;;;;;5057802;28;20060;-52
2022/07/19 09:02:39;;;;;;;16.65;4.32;;;32.40;29.80;;;;;;5057708;28;20025;-52
2022/07/19 09:05:10;;;;;;;10.50;3.00;;;32.20;29.20;;;;;;5057631;28;20025;-52
2022/07/19 09:07:38;;;;;;;22.77;4.35;;;32.50;29.60;;;;;;5057267;28;20463;-52
2022/07/19 09:10:15;;;;;;;9.63;3.38;;;33.00;30.50;;;;;;5056906;28;20029;-52
2022/07/19 09:13:10;;;;;;;14.93;4.30;;;33.20;28.20;;;;;;5056895;28;20053;-52
2022/07/19 09:15:51;;;;;;;6.30;2.50;;;33.30;29.50;;;;;;5057067;28;20052;-52
2022/07/19 09:18:22;;;;;;;10.43;3.58;;;33.20;27.60;;;;;;5056918;28;20559;-52
2022/07/19 09:20:50;;;;;;;10.00;3.60;;;32.80;27.90;;;;;;5056633;28;20035;-52
2022/07/19 09:23:17;;;;;;;7.93;2.72;;;33.30;27.60;;;;;;5056381;28;20056;-52
2022/07/19 09:25:48;;;;;;;10.18;3.25;;;33.30;26.10;;;;;;5056408;28;20055;-52
2022/07/19 09:28:15;;;;;;;9.43;3.05;;;32.10;27.30;;;;;;5056721;28;20028;-52
2022/07/19 09:30:42;;;;;;;10.50;3.10;;;32.60;26.90;;;;;;5054073;28;20408;-52
2022/07/19 09:33:12;;;;;;;11.77;2.67;;;32.70;27.10;;;;;;5056103;28;20089;-52
2022/07/19 09:35:44;;;;;;;6.20;3.00;;;33.20;26.40;;;;;;5057023;28;20064;-52
2022/07/19 09:38:26;;;;;;;8.15;3.55;;;33.50;27.00;;;;;;5056458;28;20031;-52
2022/07/19 09:41:06;;;;;;;5.50;3.40;;;32.90;25.90;;;;;;5056526;28;20044;-52
2022/07/19 09:44:03;;;;;;;16.45;5.57;;;33.20;26.30;;;;;;5056605;28;20036;-52
2022/07/19 09:46:34;;;;;;;11.80;5.13;;;33.40;26.50;;;;;;5056840;28;20021;-52
2022/07/19 09:49:15;;;;;;;11.07;5.15;;;32.10;26.10;;;;;;5050893;28;20037;-52
2022/07/19 09:51:46;;;;;;;11.68;5.10;;;32.60;27.20;;;;;;5042118;28;20391;-52
2022/07/19 09:54:17;;;;;;;12.50;5.82;;;33.30;25.70;;;;;;5038019;28;20448;-52
2022/07/19 09:56:44;;;;;;;12.82;5.63;;;33.80;26.70;;;;;;5055672;28;20025;-52
2022/07/19 09:59:11;;;;;;;19.20;5.85;;;34.20;26.20;;;;;;5055597;28;20033;-53
2022/07/19 10:01:38;;;;;;;9.75;5.70;;;34.40;26.70;;;;;;5055627;28;20020;-52
2022/07/19 10:04:13;;;;;;;15.70;6.65;;;34.50;24.70;;;;;;5056286;28;20033;-52
2022/07/19 10:06:40;;;;;;;62.92;11.55;;;33.70;25.40;;;;;;5055640;28;20031;-52
2022/07/19 10:09:09;;;;;;;17.35;6.68;;;33.70;25.50;;;;;;5055829;28;20083;-52
2022/07/19 10:11:36;;;;;;;22.88;7.10;;;34.00;26.10;;;;;;5055760;28;20384;-52
2022/07/19 10:14:03;;;;;;;15.27;5.93;;;34.50;25.90;;;;;;5055913;28;20055;-52
2022/07/19 10:17:02;;;;;;;11.07;4.85;;;34.90;25.10;;;;;;5048339;28;20421;-52
2022/07/19 10:19:41;;;;;;;12.63;5.83;;;35.00;24.70;;;;;;5051320;28;20076;-52
2022/07/19 10:22:27;;;;;;;15.30;5.28;;;34.90;24.20;;;;;;5055489;28;20043;-52
2022/07/19 10:25:09;;;;;;;9.07;4.38;;;33.90;23.90;;;;;;5049987;28;20026;-52
2022/07/19 10:27:38;;;;;;;9.35;4.32;;;34.10;24.60;;;;;;5047423;28;20025;-52
2022/07/19 10:30:12;;;;;;;17.40;5.55;;;33.90;25.60;;;;;;5037799;28;20379;-53
2022/07/19 10:32:42;;;;;;;17.00;6.47;;;33.70;25.20;;;;;;5050641;28;20025;-52
2022/07/19 10:35:20;;;;;;;10.32;4.45;;;34.30;25.20;;;;;;5055351;28;20025;-52
2022/07/19 10:37:49;;;;;;;13.48;4.65;;;34.20;24.70;;;;;;5051966;28;20548;-52
2022/07/19 10:40:35;;;;;;;11.05;4.20;;;34.40;25.80;;;;;;5050418;28;20036;-52
2022/07/19 10:43:11;;;;;;;8.57;4.57;;;34.70;24.80;;;;;;5046166;28;20025;-52
2022/07/19 10:45:39;;;;;;;7.75;4.22;;;34.80;25.00;;;;;;5037916;28;20041;-52
2022/07/19 10:48:08;;;;;;;15.57;5.53;;;34.70;25.70;;;;;;5046477;28;20036;-52
2022/07/19 10:50:56;;;;;;;5.85;3.00;;;35.00;26.30;;;;;;5045788;28;20028;-52
2022/07/19 10:53:40;;;;;;;11.15;3.40;;;35.10;26.10;;;;;;5032693;28;20128;-52
2022/07/19 10:56:21;;;;;;;7.63;2.85;;;35.20;24.60;;;;;;5039604;28;20021;-52
2022/07/19 10:59:01;;;;;;;8.27;3.03;;;35.60;24.70;;;;;;5045020;28;20486;-53
2022/07/19 11:01:30;;;;;;;4.65;2.75;;;35.30;23.80;;;;;;5047799;28;20059;-52
2022/07/19 11:04:23;;;;;;;11.80;4.43;;;34.20;23.90;;;;;;5025438;28;20038;-53
2022/07/19 11:06:50;;;;;;;12.52;3.00;;;34.70;24.30;;;;;;5044408;28;20108;-53
2022/07/19 11:09:16;;;;;;;5.15;2.05;;;34.20;24.20;;;;;;5045288;28;20104;-53
2022/07/19 11:11:42;;;;;;;23.27;4.35;;;34.60;25.50;;;;;;5044882;28;20562;-53
2022/07/19 11:14:08;;;;;;;7.40;2.28;;;34.70;23.90;;;;;;5042687;28;20056;-53
2022/07/19 11:16:33;;;;;;;7.20;2.00;;;34.00;23.80;;;;;;5045951;28;20291;-52
2022/07/19 11:19:04;;;;;;;2.22;1.33;;;34.40;25.30;;;;;;5044796;28;20070;-52
2022/07/19 11:21:32;;;;;;;17.15;4.30;;;34.90;24.30;;;;;;5049896;28;20032;-52
2022/07/19 11:23:59;;;;;;;6.93;2.22;;;35.00;23.70;;;;;;5044829;28;20112;-52
2022/07/19 11:26:26;;;;;;;4.25;1.80;;;34.80;23.80;;;;;;5047026;28;20025;-52
2022/07/19 11:28:52;;;;;;;6.03;2.30;;;35.30;24.40;;;;;;5043216;28;20520;-52
2022/07/19 11:31:21;;;;;;;3.60;2.10;;;34.20;23.40;;;;;;5041809;28;20482;-52
2022/07/19 11:33:48;;;;;;;3.20;1.55;;;33.30;23.60;;;;;;5046602;28;20025;-52
2022/07/19 11:36:16;;;;;;;4.75;1.50;;;33.20;23.90;;;;;;5046035;28;20525;-52
2022/07/19 11:38:47;;;;;;;4.22;1.40;;;34.30;24.80;;;;;;5053668;28;20138;-52
2022/07/19 11:41:22;;;;;;;23.92;4.68;;;34.40;23.50;;;;;;5054288;28;20025;-52
2022/07/19 11:43:55;;;;;;;6.40;1.63;;;34.20;23.60;;;;;;5054311;28;20112;-52
2022/07/19 11:46:23;;;;;;;9.27;2.47;;;33.50;24.20;;;;;;5050852;28;20021;-52
2022/07/19 11:48:54;;;;;;;5.28;1.50;;;33.80;24.20;;;;;;5054190;28;20024;-52
2022/07/19 11:51:20;;;;;;;8.25;1.70;;;34.30;23.90;;;;;;5054192;28;20398;-52
2022/07/19 11:53:51;;;;;;;4.05;1.30;;;34.90;23.10;;;;;;5053860;28;20028;-52
2022/07/19 11:56:23;;;;;;;10.95;2.40;;;34.80;22.90;;;;;;5048142;28;20366;-52
2022/07/19 11:58:51;;;;;;;5.75;2.00;;;35.50;22.90;;;;;;5053401;28;20025;-52
2022/07/19 12:01:35;;;;;;;7.05;1.70;;;35.90;23.00;;;;;;5053668;28;20029;-52
2022/07/19 12:04:04;;;;;;;9.48;2.00;;;36.20;23.50;;;;;;5043308;28;20025;-52
2022/07/19 12:06:48;;;;;;;8.10;2.50;;;36.00;22.10;;;;;;5043078;28;20471;-53
2022/07/19 12:09:26;;;;;;;7.32;2.03;;;36.10;22.30;;;;;;5046290;28;20030;-53
2022/07/19 12:11:54;;;;;;;6.80;1.90;;;35.60;21.40;;;;;;5045890;28;20056;-53
2022/07/19 12:14:34;;;;;;;9.43;2.20;;;35.20;21.80;;;;;;5047749;28;20047;-53
2022/07/19 12:17:12;;;;;;;3.78;1.88;;;34.80;21.90;;;;;;5041650;28;20081;-52
2022/07/19 12:19:44;;;;;;;5.43;1.90;;;34.10;23.10;;;;;;5048701;28;20422;-52
2022/07/19 12:22:29;;;;;;;6.72;1.60;;;35.30;22.60;;;;;;5040321;28;20051;-54
2022/07/19 12:24:55;;;;;;;3.15;1.40;;;35.00;21.70;;;;;;5053798;28;20499;-53
2022/07/19 12:27:27;;;;;;;8.25;2.15;;;35.00;21.70;;;;;;4998566;28;1278729;-52
2022/07/19 12:29:54;;;;;;;5.15;1.83;;;33.90;22.50;;;;;;5057388;28;20048;-52
2022/07/19 12:32:29;;;;;;;2.25;1.10;;;33.50;22.80;;;;;;5072170;28;20044;-53
2022/07/19 12:35:13;;;;;;;3.40;1.30;;;34.30;22.30;;;;;;5062627;28;20036;-52
2022/07/19 12:37:41;;;;;;;6.93;2.15;;;34.60;21.30;;;;;;5045155;28;20043;-53
2022/07/19 12:40:18;;;;;;;1.92;1.10;;;33.40;22.00;;;;;;5050207;28;20564;-52
2022/07/19 12:43:03;;;;;;;3.92;1.80;;;34.50;22.10;;;;;;5070075;28;20102;-53
2022/07/19 12:45:42;;;;;;;9.98;2.80;;;35.50;22.50;;;;;;5068931;28;20092;-53
2022/07/19 12:48:11;;;;;;;5.72;1.60;;;35.50;21.50;;;;;;5057772;28;20352;-53